createdAt,value
2017-08-21T00:00:15.900Z,0
2017-08-21T00:00:48.195Z,0
2017-08-21T00:01:20.492Z,0
2017-08-21T00:01:52.803Z,0
2017-08-21T00:02:25.108Z,0
2017-08-21T00:02:57.406Z,0
2017-08-21T00:03:29.679Z,0
2017-08-21T00:04:01.972Z,0
2017-08-21T00:04:34.273Z,0
2017-08-21T00:05:06.558Z,0
2017-08-21T00:05:38.843Z,0
2017-08-21T00:06:11.145Z,0
2017-08-21T00:06:43.439Z,0
2017-08-21T00:07:15.728Z,0
2017-08-21T00:07:48.017Z,0
2017-08-21T00:08:20.320Z,0
2017-08-21T00:08:52.616Z,0
2017-08-21T00:09:24.918Z,0
2017-08-21T00:09:57.225Z,0
2017-08-21T00:10:29.510Z,0
2017-08-21T00:11:01.888Z,0
2017-08-21T00:11:36.043Z,0
2017-08-21T00:12:08.332Z,0
2017-08-21T00:12:40.620Z,0
2017-08-21T00:13:12.879Z,0
2017-08-21T00:13:45.148Z,0
2017-08-21T00:14:17.517Z,0
2017-08-21T00:14:49.774Z,0
2017-08-21T00:15:22.134Z,0
2017-08-21T00:15:54.404Z,0
2017-08-21T00:16:27.438Z,0
2017-08-21T00:16:59.705Z,0
2017-08-21T00:17:31.971Z,0
2017-08-21T00:18:04.224Z,0
2017-08-21T00:18:36.511Z,0
2017-08-21T00:19:08.774Z,0
2017-08-21T00:19:41.025Z,0
2017-08-21T00:20:13.301Z,0
2017-08-21T00:20:45.591Z,0
2017-08-21T00:21:17.901Z,0
2017-08-21T00:21:50.190Z,0
2017-08-21T00:22:22.457Z,0
2017-08-21T00:22:54.751Z,0
2017-08-21T00:23:27.044Z,0
2017-08-21T00:23:59.339Z,0
2017-08-21T00:24:31.636Z,0
2017-08-21T00:25:03.954Z,0
2017-08-21T00:25:36.240Z,0
2017-08-21T00:26:08.551Z,0
2017-08-21T00:26:40.846Z,0
2017-08-21T00:27:13.161Z,0
2017-08-21T00:27:45.465Z,0
2017-08-21T00:28:17.748Z,0
2017-08-21T00:28:50.055Z,0
2017-08-21T00:29:22.362Z,0
2017-08-21T00:29:54.674Z,0
2017-08-21T00:30:26.970Z,0
2017-08-21T00:30:59.264Z,0
2017-08-21T00:31:31.569Z,0
2017-08-21T00:32:03.861Z,0
2017-08-21T00:32:36.151Z,0
2017-08-21T00:33:08.442Z,0
2017-08-21T00:33:40.730Z,0
2017-08-21T00:34:13.013Z,0
2017-08-21T00:34:45.324Z,0
2017-08-21T00:35:17.616Z,0
2017-08-21T00:35:49.913Z,0
2017-08-21T00:36:22.199Z,0
2017-08-21T00:36:54.472Z,0
2017-08-21T00:37:26.767Z,0
2017-08-21T00:37:59.054Z,0
2017-08-21T00:38:31.338Z,0
2017-08-21T00:39:03.637Z,0
2017-08-21T00:39:35.928Z,0
2017-08-21T00:40:08.230Z,0
2017-08-21T00:40:40.532Z,0
2017-08-21T00:41:12.838Z,0
2017-08-21T00:41:45.159Z,0
2017-08-21T00:42:17.456Z,0
2017-08-21T00:42:49.802Z,0
2017-08-21T00:43:22.071Z,0
2017-08-21T00:43:54.327Z,0
2017-08-21T00:44:26.590Z,0
2017-08-21T00:44:58.864Z,0
2017-08-21T00:45:31.136Z,0
2017-08-21T00:46:03.366Z,0
2017-08-21T00:46:35.705Z,0
2017-08-21T00:47:07.974Z,0
2017-08-21T00:47:40.223Z,0
2017-08-21T00:48:12.490Z,0
2017-08-21T00:48:44.779Z,0
2017-08-21T00:49:17.041Z,0
2017-08-21T00:49:49.302Z,0
2017-08-21T00:50:21.671Z,0
2017-08-21T00:50:53.941Z,0
2017-08-21T00:51:26.261Z,0
2017-08-21T00:51:58.561Z,0
2017-08-21T00:52:30.916Z,0
2017-08-21T00:53:03.177Z,0
2017-08-21T00:53:35.440Z,0
2017-08-21T00:54:07.728Z,0
2017-08-21T00:54:40.000Z,0
2017-08-21T00:55:12.237Z,0
2017-08-21T00:55:44.514Z,0
2017-08-21T00:56:16.828Z,0
2017-08-21T00:56:49.094Z,0
2017-08-21T00:57:21.345Z,0
2017-08-21T00:57:53.616Z,0
2017-08-21T00:58:25.873Z,0
2017-08-21T00:58:58.255Z,0
2017-08-21T00:59:30.522Z,0
2017-08-21T01:00:02.798Z,0
2017-08-21T01:00:35.061Z,0
2017-08-21T01:01:07.331Z,0
2017-08-21T01:01:39.597Z,0
2017-08-21T01:02:11.900Z,0
2017-08-21T01:02:44.172Z,0
2017-08-21T01:03:16.430Z,0
2017-08-21T01:03:48.721Z,0
2017-08-21T01:04:21.079Z,0
2017-08-21T01:04:53.327Z,0
2017-08-21T01:05:25.590Z,0
2017-08-21T01:05:57.850Z,0
2017-08-21T01:06:30.106Z,0
2017-08-21T01:07:03.025Z,0
2017-08-21T01:07:35.281Z,0
2017-08-21T01:08:07.550Z,0
2017-08-21T01:08:39.812Z,0
2017-08-21T01:09:12.111Z,0
2017-08-21T01:09:44.384Z,0
2017-08-21T01:10:16.647Z,0
2017-08-21T01:10:48.932Z,0
2017-08-21T01:11:21.266Z,0
2017-08-21T01:11:53.544Z,0
2017-08-21T01:12:25.848Z,0
2017-08-21T01:12:58.141Z,0
2017-08-21T01:13:30.447Z,0
2017-08-21T01:14:02.757Z,0
2017-08-21T01:14:35.068Z,0
2017-08-21T01:15:07.360Z,0
2017-08-21T01:15:39.668Z,0
2017-08-21T01:16:11.957Z,0
2017-08-21T01:16:44.241Z,0
2017-08-21T01:17:16.539Z,0
2017-08-21T01:17:48.842Z,0
2017-08-21T01:18:21.155Z,0
2017-08-21T01:18:53.466Z,0
2017-08-21T01:19:25.763Z,0
2017-08-21T01:19:58.056Z,0
2017-08-21T01:20:30.342Z,0
2017-08-21T01:21:02.671Z,0
2017-08-21T01:21:34.960Z,0
2017-08-21T01:22:07.262Z,0
2017-08-21T01:22:39.564Z,0
2017-08-21T01:23:11.853Z,0
2017-08-21T01:23:44.228Z,0
2017-08-21T01:24:16.487Z,0
2017-08-21T01:24:48.738Z,0
2017-08-21T01:25:21.034Z,0
2017-08-21T01:25:53.293Z,0
2017-08-21T01:26:25.557Z,0
2017-08-21T01:26:57.819Z,0
2017-08-21T01:27:30.085Z,0
2017-08-21T01:28:02.342Z,0
2017-08-21T01:28:34.588Z,0
2017-08-21T01:29:06.861Z,0
2017-08-21T01:29:39.136Z,0
2017-08-21T01:30:11.404Z,0
2017-08-21T01:30:43.666Z,0
2017-08-21T01:31:15.920Z,0
2017-08-21T01:31:48.166Z,0
2017-08-21T01:32:20.436Z,0
2017-08-21T01:32:52.689Z,0
2017-08-21T01:33:24.950Z,0
2017-08-21T01:33:57.212Z,0
2017-08-21T01:34:29.473Z,0
2017-08-21T01:35:01.726Z,0
2017-08-21T01:35:33.988Z,0
2017-08-21T01:36:06.325Z,0
2017-08-21T01:36:38.582Z,0
2017-08-21T01:37:10.839Z,0
2017-08-21T01:37:43.097Z,0
2017-08-21T01:38:15.365Z,0
2017-08-21T01:38:47.643Z,0
2017-08-21T01:39:19.907Z,0
2017-08-21T01:39:52.194Z,0
2017-08-21T01:40:24.460Z,0
2017-08-21T01:40:56.740Z,0
2017-08-21T01:41:29.047Z,0
2017-08-21T01:42:01.309Z,0
2017-08-21T01:42:33.569Z,0
2017-08-21T01:43:05.882Z,0
2017-08-21T01:43:38.128Z,0
2017-08-21T01:44:10.402Z,0
2017-08-21T01:44:42.696Z,0
2017-08-21T01:45:14.971Z,0
2017-08-21T01:45:47.248Z,0
2017-08-21T01:46:19.517Z,0
2017-08-21T01:46:51.809Z,0
2017-08-21T01:47:24.089Z,0
2017-08-21T01:47:56.356Z,0
2017-08-21T01:48:28.616Z,0
2017-08-21T01:49:00.860Z,0
2017-08-21T01:49:33.115Z,0
2017-08-21T01:50:05.433Z,0
2017-08-21T01:50:38.596Z,0
2017-08-21T01:51:10.852Z,0
2017-08-21T01:51:43.107Z,0
2017-08-21T01:52:15.366Z,0
2017-08-21T01:52:47.651Z,0
2017-08-21T01:53:19.929Z,0
2017-08-21T01:53:52.184Z,0
2017-08-21T01:54:24.449Z,0
2017-08-21T01:54:56.689Z,0
2017-08-21T01:55:28.954Z,0
2017-08-21T01:56:01.232Z,0
2017-08-21T01:56:33.561Z,0
2017-08-21T01:57:05.973Z,0
2017-08-21T01:57:38.241Z,0
2017-08-21T01:58:10.534Z,0
2017-08-21T01:58:42.806Z,0
2017-08-21T01:59:15.112Z,0
2017-08-21T01:59:47.403Z,0
2017-08-21T02:00:19.663Z,0
2017-08-21T02:00:51.923Z,0
2017-08-21T02:01:24.178Z,0
2017-08-21T02:01:56.454Z,0
2017-08-21T02:02:28.707Z,0
2017-08-21T02:03:00.970Z,0
2017-08-21T02:03:33.230Z,0
2017-08-21T02:04:05.490Z,0
2017-08-21T02:04:37.759Z,0
2017-08-21T02:05:10.106Z,0
2017-08-21T02:05:42.388Z,0
2017-08-21T02:06:14.659Z,0
2017-08-21T02:06:46.923Z,0
2017-08-21T02:07:19.190Z,0
2017-08-21T02:07:51.455Z,0
2017-08-21T02:08:23.793Z,0
2017-08-21T02:08:56.049Z,0
2017-08-21T02:09:28.312Z,0
2017-08-21T02:10:00.559Z,0
2017-08-21T02:10:32.794Z,0
2017-08-21T02:11:05.050Z,0
2017-08-21T02:11:37.313Z,0
2017-08-21T02:12:09.576Z,0
2017-08-21T02:12:41.846Z,0
2017-08-21T02:13:14.152Z,0
2017-08-21T02:13:46.461Z,0
2017-08-21T02:14:18.760Z,0
2017-08-21T02:14:51.046Z,0
2017-08-21T02:15:23.343Z,0
2017-08-21T02:15:55.656Z,0
2017-08-21T02:16:27.960Z,0
2017-08-21T02:17:00.266Z,0
2017-08-21T02:17:32.553Z,0
2017-08-21T02:18:04.858Z,0
2017-08-21T02:18:37.157Z,0
2017-08-21T02:19:09.458Z,0
2017-08-21T02:19:41.754Z,0
2017-08-21T02:20:14.055Z,0
2017-08-21T02:20:46.349Z,0
2017-08-21T02:21:18.635Z,0
2017-08-21T02:21:50.936Z,0
2017-08-21T02:22:23.233Z,0
2017-08-21T02:22:55.537Z,0
2017-08-21T02:23:27.836Z,0
2017-08-21T02:24:00.167Z,0
2017-08-21T02:24:32.461Z,0
2017-08-21T02:25:04.761Z,0
2017-08-21T02:25:37.055Z,0
2017-08-21T02:26:09.340Z,0
2017-08-21T02:26:41.647Z,0
2017-08-21T02:27:13.938Z,0
2017-08-21T02:27:46.229Z,0
2017-08-21T02:28:18.526Z,0
2017-08-21T02:28:50.813Z,0
2017-08-21T02:29:23.090Z,0
2017-08-21T02:29:55.379Z,0
2017-08-21T02:30:27.696Z,0
2017-08-21T02:31:00.013Z,0
2017-08-21T02:31:32.306Z,0
2017-08-21T02:32:04.617Z,0
2017-08-21T02:32:36.919Z,0
2017-08-21T02:33:09.195Z,0
2017-08-21T02:33:41.463Z,0
2017-08-21T02:34:13.740Z,0
2017-08-21T02:34:46.119Z,0
2017-08-21T02:35:18.384Z,0
2017-08-21T02:35:50.630Z,0
2017-08-21T02:36:22.892Z,0
2017-08-21T02:36:55.145Z,0
2017-08-21T02:37:27.412Z,0
2017-08-21T02:37:59.786Z,0
2017-08-21T02:38:32.050Z,0
2017-08-21T02:39:04.350Z,0
2017-08-21T02:39:36.605Z,0
2017-08-21T02:40:08.892Z,0
2017-08-21T02:40:41.228Z,0
2017-08-21T02:41:13.503Z,0
2017-08-21T02:41:45.789Z,0
2017-08-21T02:42:18.047Z,0
2017-08-21T02:42:50.337Z,0
2017-08-21T02:43:22.609Z,0
2017-08-21T02:43:54.885Z,0
2017-08-21T02:44:27.151Z,0
2017-08-21T02:44:59.399Z,0
2017-08-21T02:45:31.758Z,0
2017-08-21T02:46:04.133Z,0
2017-08-21T02:46:36.388Z,0
2017-08-21T02:47:08.647Z,0
2017-08-21T02:47:40.924Z,0
2017-08-21T02:48:13.190Z,0
2017-08-21T02:48:45.459Z,0
2017-08-21T02:49:17.728Z,0
2017-08-21T02:49:49.986Z,0
2017-08-21T02:50:22.247Z,0
2017-08-21T02:50:54.549Z,0
2017-08-21T02:51:26.795Z,0
2017-08-21T02:51:59.070Z,0
2017-08-21T02:52:31.336Z,0
2017-08-21T02:53:03.625Z,0
2017-08-21T02:53:35.915Z,0
2017-08-21T02:54:08.238Z,0
2017-08-21T02:54:40.529Z,0
2017-08-21T02:55:12.835Z,0
2017-08-21T02:55:45.128Z,0
2017-08-21T02:56:17.398Z,0
2017-08-21T02:56:49.692Z,0
2017-08-21T02:57:22.005Z,0
2017-08-21T02:57:54.305Z,0
2017-08-21T02:58:26.601Z,0
2017-08-21T02:58:58.906Z,0
2017-08-21T02:59:31.201Z,0
2017-08-21T03:00:03.499Z,0
2017-08-21T03:00:35.792Z,0
2017-08-21T03:01:08.105Z,0
2017-08-21T03:01:40.423Z,0
2017-08-21T03:02:12.722Z,0
2017-08-21T03:02:45.002Z,0
2017-08-21T03:03:17.309Z,0
2017-08-21T03:03:49.618Z,0
2017-08-21T03:04:21.918Z,0
2017-08-21T03:04:54.227Z,0
2017-08-21T03:05:26.525Z,0
2017-08-21T03:05:58.817Z,0
2017-08-21T03:06:31.091Z,0
2017-08-21T03:07:03.374Z,0
2017-08-21T03:07:35.671Z,0
2017-08-21T03:08:07.979Z,0
2017-08-21T03:08:40.291Z,0
2017-08-21T03:09:12.609Z,0
2017-08-21T03:09:44.919Z,0
2017-08-21T03:10:17.203Z,0
2017-08-21T03:10:49.503Z,0
2017-08-21T03:11:21.814Z,0
2017-08-21T03:11:54.117Z,0
2017-08-21T03:12:26.416Z,0
2017-08-21T03:12:58.705Z,0
2017-08-21T03:13:30.954Z,0
2017-08-21T03:14:03.208Z,0
2017-08-21T03:14:35.477Z,0
2017-08-21T03:15:07.786Z,0
2017-08-21T03:15:40.038Z,0
2017-08-21T03:16:12.307Z,0
2017-08-21T03:16:44.580Z,0
2017-08-21T03:17:16.827Z,0
2017-08-21T03:17:49.085Z,0
2017-08-21T03:18:21.342Z,0
2017-08-21T03:18:53.608Z,0
2017-08-21T03:19:25.942Z,0
2017-08-21T03:19:58.214Z,0
2017-08-21T03:20:30.507Z,0
2017-08-21T03:21:02.759Z,0
2017-08-21T03:21:35.016Z,0
2017-08-21T03:22:07.280Z,0
2017-08-21T03:22:39.536Z,0
2017-08-21T03:23:11.814Z,0
2017-08-21T03:23:44.089Z,0
2017-08-21T03:24:16.382Z,0
2017-08-21T03:24:48.664Z,0
2017-08-21T03:25:20.971Z,0
2017-08-21T03:25:53.276Z,0
2017-08-21T03:26:25.563Z,0
2017-08-21T03:26:57.871Z,0
2017-08-21T03:27:30.173Z,0
2017-08-21T03:28:02.458Z,0
2017-08-21T03:28:34.739Z,0
2017-08-21T03:29:07.040Z,0
2017-08-21T03:29:39.348Z,0
2017-08-21T03:30:11.643Z,0
2017-08-21T03:30:43.943Z,0
2017-08-21T03:31:16.236Z,0
2017-08-21T03:31:48.526Z,0
2017-08-21T03:32:20.822Z,0
2017-08-21T03:32:53.116Z,0
2017-08-21T03:33:25.366Z,0
2017-08-21T03:33:57.635Z,0
2017-08-21T03:34:30.011Z,0
2017-08-21T03:35:02.286Z,0
2017-08-21T03:35:34.553Z,0
2017-08-21T03:36:06.837Z,0
2017-08-21T03:36:39.088Z,0
2017-08-21T03:37:11.399Z,0
2017-08-21T03:37:43.683Z,0
2017-08-21T03:38:15.927Z,0
2017-08-21T03:38:48.204Z,0
2017-08-21T03:39:20.489Z,0
2017-08-21T03:39:52.749Z,0
2017-08-21T03:40:25.013Z,0
2017-08-21T03:40:57.304Z,0
2017-08-21T03:41:29.574Z,0
2017-08-21T03:42:01.847Z,0
2017-08-21T03:42:34.093Z,0
2017-08-21T03:43:06.352Z,0
2017-08-21T03:43:38.622Z,0
2017-08-21T03:44:10.896Z,0
2017-08-21T03:44:43.140Z,0
2017-08-21T03:45:15.398Z,0
2017-08-21T03:45:47.744Z,0
2017-08-21T03:46:20.022Z,0
2017-08-21T03:46:52.291Z,0
2017-08-21T03:47:24.552Z,0
2017-08-21T03:47:56.839Z,0
2017-08-21T03:48:29.101Z,0
2017-08-21T03:49:01.391Z,0
2017-08-21T03:49:33.663Z,0
2017-08-21T03:50:05.936Z,0
2017-08-21T03:50:38.210Z,0
2017-08-21T03:51:10.516Z,0
2017-08-21T03:51:42.785Z,0
2017-08-21T03:52:15.040Z,0
2017-08-21T03:52:47.296Z,0
2017-08-21T03:53:19.594Z,0
2017-08-21T03:53:51.894Z,4
2017-08-21T03:54:24.153Z,4
2017-08-21T03:54:56.426Z,4
2017-08-21T03:55:28.677Z,4
2017-08-21T03:56:00.949Z,4
2017-08-21T03:56:33.293Z,0
2017-08-21T03:57:05.574Z,0
2017-08-21T03:57:37.853Z,4
2017-08-21T03:58:10.119Z,4
2017-08-21T03:58:42.385Z,4
2017-08-21T03:59:14.673Z,4
2017-08-21T03:59:46.913Z,8
2017-08-21T04:00:20.088Z,4
2017-08-21T04:00:52.369Z,4
2017-08-21T04:01:24.628Z,8
2017-08-21T04:01:56.907Z,8
2017-08-21T04:02:29.259Z,4
2017-08-21T04:03:01.550Z,8
2017-08-21T04:03:33.852Z,8
2017-08-21T04:04:06.130Z,8
2017-08-21T04:04:38.426Z,8
2017-08-21T04:05:10.732Z,8
2017-08-21T04:05:43.030Z,12
2017-08-21T04:06:15.333Z,12
2017-08-21T04:06:47.626Z,12
2017-08-21T04:07:19.922Z,12
2017-08-21T04:07:52.233Z,12
2017-08-21T04:08:24.541Z,16
2017-08-21T04:08:56.840Z,16
2017-08-21T04:09:29.133Z,20
2017-08-21T04:10:01.431Z,20
2017-08-21T04:10:33.740Z,24
2017-08-21T04:11:06.027Z,24
2017-08-21T04:11:38.313Z,24
2017-08-21T04:12:10.601Z,24
2017-08-21T04:12:42.884Z,28
2017-08-21T04:13:15.176Z,32
2017-08-21T04:13:47.470Z,32
2017-08-21T04:14:19.767Z,36
2017-08-21T04:14:52.063Z,36
2017-08-21T04:15:24.368Z,36
2017-08-21T04:15:56.655Z,40
2017-08-21T04:16:28.978Z,44
2017-08-21T04:17:01.287Z,48
2017-08-21T04:17:33.575Z,48
2017-08-21T04:18:05.872Z,48
2017-08-21T04:18:38.184Z,56
2017-08-21T04:19:10.505Z,56
2017-08-21T04:19:42.805Z,60
2017-08-21T04:20:15.105Z,64
2017-08-21T04:20:47.409Z,68
2017-08-21T04:21:19.706Z,72
2017-08-21T04:21:52.012Z,72
2017-08-21T04:22:24.308Z,76
2017-08-21T04:22:56.623Z,84
2017-08-21T04:23:28.906Z,88
2017-08-21T04:24:01.197Z,88
2017-08-21T04:24:33.481Z,96
2017-08-21T04:25:05.787Z,96
2017-08-21T04:25:38.091Z,104
2017-08-21T04:26:10.383Z,108
2017-08-21T04:26:42.685Z,112
2017-08-21T04:27:14.981Z,116
2017-08-21T04:27:47.286Z,124
2017-08-21T04:28:19.583Z,128
2017-08-21T04:28:51.862Z,132
2017-08-21T04:29:24.168Z,140
2017-08-21T04:29:56.450Z,144
2017-08-21T04:30:28.753Z,152
2017-08-21T04:31:01.056Z,156
2017-08-21T04:31:33.338Z,160
2017-08-21T04:32:05.614Z,168
2017-08-21T04:32:37.914Z,176
2017-08-21T04:33:10.242Z,180
2017-08-21T04:33:42.504Z,188
2017-08-21T04:34:14.823Z,196
2017-08-21T04:34:47.103Z,200
2017-08-21T04:35:19.407Z,208
2017-08-21T04:35:51.678Z,212
2017-08-21T04:36:23.932Z,220
2017-08-21T04:36:56.207Z,224
2017-08-21T04:37:28.481Z,236
2017-08-21T04:38:00.743Z,240
2017-08-21T04:38:33.004Z,244
2017-08-21T04:39:05.253Z,252
2017-08-21T04:39:37.535Z,260
2017-08-21T04:40:09.794Z,264
2017-08-21T04:40:42.074Z,272
2017-08-21T04:41:14.362Z,280
2017-08-21T04:41:46.645Z,288
2017-08-21T04:42:18.886Z,296
2017-08-21T04:42:51.141Z,304
2017-08-21T04:43:23.411Z,308
2017-08-21T04:43:55.678Z,316
2017-08-21T04:44:27.975Z,324
2017-08-21T04:45:00.245Z,332
2017-08-21T04:45:32.515Z,336
2017-08-21T04:46:04.769Z,348
2017-08-21T04:46:37.033Z,356
2017-08-21T04:47:09.286Z,364
2017-08-21T04:47:41.530Z,372
2017-08-21T04:48:13.781Z,376
2017-08-21T04:48:46.072Z,384
2017-08-21T04:49:18.335Z,392
2017-08-21T04:49:50.601Z,400
2017-08-21T04:50:22.850Z,408
2017-08-21T04:50:55.114Z,412
2017-08-21T04:51:27.399Z,420
2017-08-21T04:51:59.681Z,432
2017-08-21T04:52:31.978Z,436
2017-08-21T04:53:04.236Z,444
2017-08-21T04:53:36.499Z,456
2017-08-21T04:54:08.860Z,468
2017-08-21T04:54:41.135Z,484
2017-08-21T04:55:13.421Z,496
2017-08-21T04:55:45.684Z,516
2017-08-21T04:56:17.962Z,540
2017-08-21T04:56:50.235Z,556
2017-08-21T04:57:22.488Z,580
2017-08-21T04:57:54.756Z,596
2017-08-21T04:58:27.030Z,612
2017-08-21T04:58:59.309Z,624
2017-08-21T04:59:31.550Z,632
2017-08-21T05:00:03.796Z,636
2017-08-21T05:00:36.074Z,640
2017-08-21T05:01:08.338Z,648
2017-08-21T05:01:40.601Z,648
2017-08-21T05:02:12.861Z,644
2017-08-21T05:02:45.151Z,640
2017-08-21T05:03:17.446Z,640
2017-08-21T05:03:49.732Z,648
2017-08-21T05:04:21.997Z,652
2017-08-21T05:04:54.269Z,660
2017-08-21T05:05:26.681Z,668
2017-08-21T05:05:58.944Z,672
2017-08-21T05:06:31.198Z,680
2017-08-21T05:07:03.442Z,684
2017-08-21T05:07:35.720Z,688
2017-08-21T05:08:08.004Z,696
2017-08-21T05:08:40.314Z,708
2017-08-21T05:09:12.570Z,712
2017-08-21T05:09:44.841Z,720
2017-08-21T05:10:17.101Z,732
2017-08-21T05:10:49.359Z,740
2017-08-21T05:11:21.608Z,748
2017-08-21T05:11:53.898Z,756
2017-08-21T05:12:26.161Z,764
2017-08-21T05:12:58.427Z,772
2017-08-21T05:13:30.704Z,780
2017-08-21T05:14:02.951Z,784
2017-08-21T05:14:35.247Z,792
2017-08-21T05:15:07.537Z,796
2017-08-21T05:15:39.804Z,800
2017-08-21T05:16:12.097Z,808
2017-08-21T05:16:44.470Z,820
2017-08-21T05:17:16.732Z,828
2017-08-21T05:17:48.995Z,840
2017-08-21T05:18:21.259Z,852
2017-08-21T05:18:53.530Z,860
2017-08-21T05:19:25.778Z,872
2017-08-21T05:19:58.099Z,876
2017-08-21T05:20:30.379Z,884
2017-08-21T05:21:02.637Z,896
2017-08-21T05:21:34.897Z,900
2017-08-21T05:22:07.149Z,920
2017-08-21T05:22:39.425Z,936
2017-08-21T05:23:11.764Z,964
2017-08-21T05:23:44.011Z,992
2017-08-21T05:24:16.269Z,1028
2017-08-21T05:24:48.534Z,1068
2017-08-21T05:25:20.803Z,1096
2017-08-21T05:25:53.069Z,1132
2017-08-21T05:26:25.399Z,1156
2017-08-21T05:26:57.671Z,1176
2017-08-21T05:27:29.937Z,1200
2017-08-21T05:28:02.223Z,1220
2017-08-21T05:28:34.543Z,1248
2017-08-21T05:29:06.820Z,1264
2017-08-21T05:29:39.085Z,1280
2017-08-21T05:30:11.528Z,1276
2017-08-21T05:30:43.782Z,1260
2017-08-21T05:31:16.075Z,1200
2017-08-21T05:31:48.391Z,1124
2017-08-21T05:32:21.576Z,1052
2017-08-21T05:32:53.847Z,1012
2017-08-21T05:33:26.257Z,1000
2017-08-21T05:33:58.495Z,988
2017-08-21T05:34:30.744Z,992
2017-08-21T05:35:02.973Z,996
2017-08-21T05:35:35.357Z,996
2017-08-21T05:36:07.784Z,1008
2017-08-21T05:36:40.035Z,1016
2017-08-21T05:37:12.297Z,1024
2017-08-21T05:37:44.552Z,1032
2017-08-21T05:38:16.815Z,1052
2017-08-21T05:38:49.081Z,1080
2017-08-21T05:39:21.340Z,1116
2017-08-21T05:39:53.590Z,1160
2017-08-21T05:40:25.892Z,1220
2017-08-21T05:40:58.198Z,1264
2017-08-21T05:41:30.453Z,1264
2017-08-21T05:42:02.720Z,1220
2017-08-21T05:42:34.999Z,1136
2017-08-21T05:43:07.250Z,1112
2017-08-21T05:43:39.499Z,1112
2017-08-21T05:44:11.929Z,1124
2017-08-21T05:44:44.177Z,1140
2017-08-21T05:45:16.415Z,1172
2017-08-21T05:45:48.682Z,1196
2017-08-21T05:46:20.961Z,1236
2017-08-21T05:46:53.221Z,1312
2017-08-21T05:47:25.592Z,1396
2017-08-21T05:47:57.872Z,1460
2017-08-21T05:48:30.133Z,1508
2017-08-21T05:49:02.430Z,1536
2017-08-21T05:49:34.674Z,1596
2017-08-21T05:50:06.932Z,1668
2017-08-21T05:50:39.190Z,1716
2017-08-21T05:51:11.453Z,1744
2017-08-21T05:51:43.808Z,1760
2017-08-21T05:52:16.159Z,1776
2017-08-21T05:52:48.418Z,1796
2017-08-21T05:53:20.703Z,1804
2017-08-21T05:53:53.070Z,1824
2017-08-21T05:54:25.348Z,1836
2017-08-21T05:54:57.638Z,1844
2017-08-21T05:55:29.940Z,1844
2017-08-21T05:56:02.310Z,1860
2017-08-21T05:56:34.579Z,1884
2017-08-21T05:57:06.830Z,1908
2017-08-21T05:57:39.102Z,1920
2017-08-21T05:58:11.390Z,1940
2017-08-21T05:58:43.645Z,1956
2017-08-21T05:59:15.951Z,1968
2017-08-21T05:59:48.234Z,1976
2017-08-21T06:00:20.501Z,1976
2017-08-21T06:00:52.791Z,1972
2017-08-21T06:01:25.131Z,1976
2017-08-21T06:01:57.402Z,1984
2017-08-21T06:02:29.669Z,1988
2017-08-21T06:03:01.957Z,2000
2017-08-21T06:03:34.243Z,2020
2017-08-21T06:04:06.754Z,2032
2017-08-21T06:04:39.035Z,2044
2017-08-21T06:05:11.345Z,2048
2017-08-21T06:05:43.637Z,2056
2017-08-21T06:06:15.942Z,2052
2017-08-21T06:06:48.241Z,2052
2017-08-21T06:07:20.544Z,2060
2017-08-21T06:07:52.853Z,2080
2017-08-21T06:08:25.172Z,2080
2017-08-21T06:08:57.463Z,2088
2017-08-21T06:09:29.763Z,2100
2017-08-21T06:10:02.070Z,2112
2017-08-21T06:10:34.381Z,2136
2017-08-21T06:11:06.680Z,2148
2017-08-21T06:11:38.971Z,2152
2017-08-21T06:12:11.273Z,2156
2017-08-21T06:12:43.576Z,2172
2017-08-21T06:13:15.875Z,2196
2017-08-21T06:13:48.267Z,2208
2017-08-21T06:14:20.561Z,2224
2017-08-21T06:14:52.856Z,2232
2017-08-21T06:15:25.158Z,2236
2017-08-21T06:15:57.459Z,2252
2017-08-21T06:16:29.772Z,2264
2017-08-21T06:17:02.085Z,2280
2017-08-21T06:17:34.412Z,2296
2017-08-21T06:18:06.720Z,2304
2017-08-21T06:18:39.013Z,2312
2017-08-21T06:19:11.313Z,2308
2017-08-21T06:19:43.614Z,2312
2017-08-21T06:20:15.910Z,2312
2017-08-21T06:20:48.213Z,2324
2017-08-21T06:21:21.608Z,2332
2017-08-21T06:21:54.549Z,2340
2017-08-21T06:22:26.842Z,2344
2017-08-21T06:22:59.163Z,2356
2017-08-21T06:23:31.468Z,2360
2017-08-21T06:24:03.774Z,2372
2017-08-21T06:24:36.068Z,2384
2017-08-21T06:25:08.373Z,2412
2017-08-21T06:25:41.698Z,2424
2017-08-21T06:26:15.024Z,2436
2017-08-21T06:26:47.304Z,2440
2017-08-21T06:27:19.608Z,2448
2017-08-21T06:27:51.889Z,2464
2017-08-21T06:28:24.185Z,2476
2017-08-21T06:28:56.475Z,2484
2017-08-21T06:29:28.776Z,2496
2017-08-21T06:30:01.063Z,2496
2017-08-21T06:30:33.364Z,2500
2017-08-21T06:31:05.665Z,2512
2017-08-21T06:31:37.953Z,2516
2017-08-21T06:32:10.219Z,2512
2017-08-21T06:32:42.514Z,2516
2017-08-21T06:33:14.799Z,2512
2017-08-21T06:33:47.056Z,2516
2017-08-21T06:34:19.323Z,2516
2017-08-21T06:34:51.589Z,2540
2017-08-21T06:35:23.850Z,2552
2017-08-21T06:35:56.691Z,2568
2017-08-21T06:36:28.966Z,2568
2017-08-21T06:37:01.244Z,2580
2017-08-21T06:37:33.494Z,2600
2017-08-21T06:38:05.764Z,2616
2017-08-21T06:38:38.105Z,2628
2017-08-21T06:39:10.393Z,2648
2017-08-21T06:39:42.669Z,2656
2017-08-21T06:40:15.017Z,2672
2017-08-21T06:40:47.278Z,2688
2017-08-21T06:41:19.576Z,2704
2017-08-21T06:41:51.928Z,2704
2017-08-21T06:42:24.164Z,2716
2017-08-21T06:42:56.438Z,2736
2017-08-21T06:43:28.727Z,2756
2017-08-21T06:44:01.017Z,2768
2017-08-21T06:44:33.331Z,2788
2017-08-21T06:45:05.639Z,2808
2017-08-21T06:46:57.252Z,2812
2017-08-21T06:47:29.551Z,2820
2017-08-21T06:48:01.832Z,2824
2017-08-21T06:48:34.129Z,2836
2017-08-21T06:49:06.457Z,2844
2017-08-21T06:49:38.738Z,2868
2017-08-21T06:50:11.012Z,2884
2017-08-21T06:50:43.297Z,2908
2017-08-21T06:51:15.592Z,2920
2017-08-21T06:51:50.289Z,2936
2017-08-21T06:52:22.579Z,2948
2017-08-21T06:52:54.896Z,2960
2017-08-21T06:53:27.165Z,2972
2017-08-21T06:53:59.497Z,2996
2017-08-21T06:54:31.763Z,3024
2017-08-21T06:55:04.012Z,3040
2017-08-21T06:55:36.404Z,3064
2017-08-21T06:56:08.699Z,3088
2017-08-21T06:56:40.983Z,3112
2017-08-21T06:57:13.291Z,3132
2017-08-21T06:57:45.566Z,3128
2017-08-21T06:58:18.054Z,3144
2017-08-21T06:58:50.334Z,3152
2017-08-21T06:59:22.625Z,3164
2017-08-21T06:59:54.882Z,3172
2017-08-21T07:00:27.586Z,3180
2017-08-21T07:01:00.435Z,3192
2017-08-21T07:01:32.887Z,3192
2017-08-21T07:02:05.171Z,3196
2017-08-21T07:02:37.447Z,3200
2017-08-21T07:03:09.737Z,3208
2017-08-21T07:03:42.030Z,3224
2017-08-21T07:04:14.338Z,3224
2017-08-21T07:04:46.630Z,3224
2017-08-21T07:05:18.914Z,3244
2017-08-21T07:05:51.199Z,3256
2017-08-21T07:06:23.497Z,3280
2017-08-21T07:06:55.800Z,3300
2017-08-21T07:07:28.106Z,3316
2017-08-21T07:08:00.394Z,3332
2017-08-21T07:08:32.686Z,3352
2017-08-21T07:09:04.985Z,3360
2017-08-21T07:10:56.784Z,3396
2017-08-21T07:11:29.081Z,3408
2017-08-21T07:12:01.377Z,3424
2017-08-21T07:12:33.769Z,3420
2017-08-21T07:14:25.676Z,3460
2017-08-21T07:14:57.998Z,3464
2017-08-21T07:15:30.309Z,3468
2017-08-21T07:16:02.616Z,3476
2017-08-21T07:16:34.913Z,3476
2017-08-21T07:17:07.219Z,3480
2017-08-21T07:17:39.497Z,3480
2017-08-21T07:18:11.792Z,3476
2017-08-21T07:18:43.953Z,3496
2017-08-21T07:19:16.235Z,3500
2017-08-21T07:19:48.522Z,3500
2017-08-21T07:20:20.794Z,3512
2017-08-21T07:20:53.080Z,3504
2017-08-21T07:21:25.381Z,3496
2017-08-21T07:21:57.673Z,3480
2017-08-21T07:22:29.970Z,3460
2017-08-21T07:23:02.276Z,3448
2017-08-21T07:23:34.582Z,3456
2017-08-21T07:24:06.876Z,3468
2017-08-21T07:24:39.164Z,3464
2017-08-21T07:25:11.446Z,3460
2017-08-21T07:25:43.747Z,3452
2017-08-21T07:26:16.050Z,3440
2017-08-21T07:26:48.339Z,3448
2017-08-21T07:27:20.654Z,3456
2017-08-21T07:27:52.952Z,3460
2017-08-21T07:28:25.236Z,3468
2017-08-21T07:28:57.562Z,3476
2017-08-21T07:29:29.842Z,3476
2017-08-21T07:30:02.128Z,3480
2017-08-21T07:30:34.429Z,3472
2017-08-21T07:31:06.741Z,3472
2017-08-21T07:31:39.037Z,3472
2017-08-21T07:32:11.377Z,3468
2017-08-21T07:32:43.708Z,3456
2017-08-21T07:33:16.012Z,3460
2017-08-21T07:33:48.323Z,3464
2017-08-21T07:34:20.633Z,3476
2017-08-21T07:34:52.913Z,3464
2017-08-21T07:35:25.209Z,3488
2017-08-21T07:35:57.506Z,3504
2017-08-21T07:36:29.772Z,3508
2017-08-21T07:37:02.072Z,3504
2017-08-21T07:37:34.389Z,3516
2017-08-21T07:38:06.701Z,3516
2017-08-21T07:38:39.001Z,3508
2017-08-21T07:39:11.311Z,3524
2017-08-21T07:39:43.598Z,3520
2017-08-21T07:40:15.889Z,3540
2017-08-21T07:40:48.205Z,3540
2017-08-21T07:41:20.503Z,3520
2017-08-21T07:41:52.805Z,3556